Time;durP1;ratioP1;P1;durP2;ratioP2;P2;SDS_P1;SDS_P2;PMS_P1;PMS_P2;Temp;Humidity;BMP_temperature;BMP_pressure;BME280_temperature;BME280_humidity;BME280_pressure;Samples;Min_cycle;Max_cycle;Signal;HPM_P1;HPM_P2
2023/04/26 00:00:13;;;;;;;2.13;2.03;;;;;;;13.67;100.00;98526.25;5074965;28;20196;-67
2023/04/26 00:02:40;;;;;;;2.17;2.07;;;;;;;13.75;100.00;98527.72;5075069;28;20239;-66
2023/04/26 00:05:08;;;;;;;2.30;2.20;;;;;;;13.82;100.00;98517.69;5055784;28;20574;-66
2023/04/26 00:07:36;;;;;;;2.33;2.23;;;;;;;13.84;100.00;98526.28;5066191;28;20200;-66
2023/04/26 00:10:03;;;;;;;2.10;2.00;;;;;;;13.85;100.00;98517.22;5074774;28;20262;-67
2023/04/26 00:12:30;;;;;;;2.07;1.97;;;;;;;13.89;100.00;98519.16;5075021;28;20188;-67
2023/04/26 00:14:58;;;;;;;2.30;2.20;;;;;;;13.66;100.00;98497.13;5074747;28;20671;-67
2023/04/26 00:17:24;;;;;;;2.27;2.17;;;;;;;13.69;100.00;98510.00;5064704;28;20644;-68
2023/04/26 00:19:51;;;;;;;2.07;1.97;;;;;;;13.68;100.00;98501.19;5055123;28;20282;-67
2023/04/26 00:22:18;;;;;;;2.13;2.10;;;;;;;13.66;100.00;98503.28;5054737;28;20254;-68
2023/04/26 00:24:44;;;;;;;2.00;1.90;;;;;;;13.62;100.00;98504.00;5055327;28;20189;-65
2023/04/26 00:27:11;;;;;;;2.20;2.00;;;;;;;13.70;100.00;98496.41;5073369;28;20196;-67
2023/04/26 00:29:38;;;;;;;2.00;1.90;;;;;;;13.58;100.00;98494.84;5075002;28;20682;-66
2023/04/26 00:32:06;;;;;;;1.50;1.50;;;;;;;13.62;100.00;98491.47;5074444;28;20625;-67
2023/04/26 00:34:33;;;;;;;2.07;1.97;;;;;;;13.52;100.00;98495.81;5074569;28;20253;-66
2023/04/26 00:37:00;;;;;;;1.80;1.77;;;;;;;13.60;100.00;98482.88;5068504;28;20736;-67
2023/04/26 00:39:27;;;;;;;1.93;1.83;;;;;;;13.67;100.00;98478.22;5054504;28;20195;-67
2023/04/26 00:41:54;;;;;;;1.40;1.40;;;;;;;13.75;100.00;98475.16;5054740;28;20193;-67
2023/04/26 00:44:20;;;;;;;1.70;1.70;;;;;;;13.75;100.00;98463.66;5052716;28;20607;-67
2023/04/26 00:46:48;;;;;;;1.63;1.63;;;;;;;13.67;100.00;98456.88;5070493;28;20192;-67
2023/04/26 00:49:17;;;;;;;2.03;1.83;;;;;;;13.75;100.00;98464.47;5071469;28;20257;-67
2023/04/26 00:51:44;;;;;;;1.73;1.63;;;;;;;13.68;100.00;98463.81;5063264;28;20189;-68
2023/04/26 00:54:12;;;;;;;1.83;1.73;;;;;;;13.68;100.00;98458.47;5063238;28;20314;-67
2023/04/26 00:56:39;;;;;;;1.63;1.60;;;;;;;13.67;100.00;98456.88;5065015;28;20184;-68
2023/04/26 00:59:06;;;;;;;1.70;1.60;;;;;;;13.74;100.00;98452.19;5063185;28;20274;-67
2023/04/26 01:01:34;;;;;;;2.07;1.87;;;;;;;13.57;100.00;98458.56;5063103;28;20202;-67
2023/04/26 01:04:01;;;;;;;1.40;1.40;;;;;;;13.51;100.00;98451.50;5062091;28;20620;-67
2023/04/26 01:06:33;;;;;;;1.90;1.80;;;;;;;13.48;100.00;98450.09;5063135;28;20189;-67
2023/04/26 01:09:02;;;;;;;1.57;1.47;;;;;;;13.25;100.00;98447.56;5062214;28;20184;-67
2023/04/26 01:11:29;;;;;;;2.50;1.60;;;;;;;13.28;100.00;98451.63;5063746;28;20629;-67
2023/04/26 01:13:56;;;;;;;1.50;1.50;;;;;;;13.38;99.49;98452.59;5062990;28;20189;-69
2023/04/26 01:16:23;;;;;;;1.40;1.40;;;;;;;13.42;99.23;98453.75;5063880;28;20675;-67
2023/04/26 01:18:51;;;;;;;1.67;1.60;;;;;;;13.44;99.19;98450.84;5063075;28;20208;-67
2023/04/26 01:21:20;;;;;;;1.70;1.70;;;;;;;13.37;98.91;98453.66;5061988;28;20232;-67
2023/04/26 01:23:48;;;;;;;1.67;1.67;;;;;;;13.34;98.20;98450.66;5063591;28;20188;-67
2023/04/26 01:26:15;;;;;;;1.93;1.50;;;;;;;13.34;98.23;98456.81;5064106;28;20227;-67
2023/04/26 01:28:42;;;;;;;1.50;1.50;;;;;;;13.19;97.15;98443.16;5061829;28;20220;-66
2023/04/26 01:31:09;;;;;;;1.50;1.40;;;;;;;13.26;97.06;98451.03;5063239;28;20187;-66
2023/04/26 01:33:35;;;;;;;1.10;1.10;;;;;;;13.31;96.59;98441.28;5065599;28;20192;-66
2023/04/26 01:36:02;;;;;;;1.87;1.40;;;;;;;13.24;95.99;98440.59;5067451;28;20646;-67
2023/04/26 01:38:29;;;;;;;2.40;2.27;;;;;;;13.33;95.61;98438.38;5062317;28;20277;-67
2023/04/26 01:40:57;;;;;;;2.77;2.53;;;;;;;13.33;95.06;98444.53;5063972;28;20188;-67
2023/04/26 01:43:24;;;;;;;2.60;2.40;;;;;;;13.29;94.77;98443.38;5062634;28;20184;-67
2023/04/26 01:45:50;;;;;;;2.30;2.00;;;;;;;13.27;94.81;98434.78;5061938;28;20679;-67
2023/04/26 01:48:17;;;;;;;1.63;1.60;;;;;;;13.28;94.86;98431.06;5063362;28;20200;-69
2023/04/26 01:50:43;;;;;;;1.50;1.40;;;;;;;13.28;94.60;98424.94;5061280;28;20552;-69
2023/04/26 01:53:11;;;;;;;1.43;1.43;;;;;;;13.38;95.25;98430.44;5060528;28;20187;-66
2023/04/26 01:55:37;;;;;;;1.70;1.60;;;;;;;13.41;94.91;98433.47;5063336;28;20275;-66
2023/04/26 01:58:05;;;;;;;1.57;1.10;;;;;;;13.49;94.71;98442.94;5062262;28;20213;-66
2023/04/26 02:00:33;;;;;;;1.73;1.63;;;;;;;13.60;94.24;98431.41;5061404;28;20196;-66
2023/04/26 02:03:00;;;;;;;1.57;1.10;;;;;;;13.61;92.97;98431.16;5059729;28;20189;-67
2023/04/26 02:05:26;;;;;;;1.23;1.23;;;;;;;13.62;91.17;98443.44;5071653;28;20253;-67
2023/04/26 02:07:53;;;;;;;1.30;1.30;;;;;;;13.49;90.90;98443.75;5072834;28;20217;-66
2023/04/26 02:10:20;;;;;;;0.90;0.90;;;;;;;13.44;91.13;98440.97;5072756;28;20196;-66
2023/04/26 02:12:46;;;;;;;1.10;1.10;;;;;;;13.59;91.14;98443.09;5070839;28;20196;-67
2023/04/26 02:15:15;;;;;;;1.37;1.30;;;;;;;13.57;91.34;98442.53;5072287;28;20635;-67
2023/04/26 02:17:42;;;;;;;1.10;1.07;;;;;;;13.59;91.31;98445.75;5072267;28;20284;-67
2023/04/26 02:20:10;;;;;;;1.67;1.60;;;;;;;13.58;91.36;98446.81;5072624;28;20188;-67
2023/04/26 02:22:36;;;;;;;1.83;1.30;;;;;;;13.51;91.48;98451.50;5057782;28;20262;-66
2023/04/26 02:25:04;;;;;;;1.20;1.20;;;;;;;13.50;92.02;98456.03;5052203;28;20318;-66
2023/04/26 02:27:31;;;;;;;1.40;1.40;;;;;;;13.52;91.77;98455.81;5052320;28;20669;-67
2023/04/26 02:29:58;;;;;;;1.40;1.30;;;;;;;13.46;91.47;98452.22;5052033;28;20231;-67
2023/04/26 02:32:26;;;;;;;3.33;1.50;;;;;;;13.53;91.85;98454.75;5063433;28;20203;-67
2023/04/26 02:34:54;;;;;;;1.77;1.67;;;;;;;13.49;92.38;98449.09;5072384;28;20196;-66
2023/04/26 02:37:21;;;;;;;1.90;1.80;;;;;;;13.47;92.40;98445.84;5072353;28;20219;-66
2023/04/26 02:39:49;;;;;;;1.70;1.70;;;;;;;13.46;93.53;98444.22;5071919;28;20222;-66
2023/04/26 02:42:16;;;;;;;2.50;2.30;;;;;;;13.43;93.30;98450.03;5063566;28;20216;-66
2023/04/26 02:44:43;;;;;;;4.30;2.60;;;;;;;13.37;94.03;98450.19;5051848;28;20201;-66
2023/04/26 02:47:10;;;;;;;2.70;2.60;;;;;;;13.24;93.97;98456.59;5052220;28;20188;-66
2023/04/26 02:49:39;;;;;;;2.70;2.50;;;;;;;13.14;94.95;98445.75;5052120;28;20274;-67
2023/04/26 02:52:05;;;;;;;2.40;2.30;;;;;;;13.23;94.51;98459.53;5057759;28;20239;-67
2023/04/26 02:54:32;;;;;;;2.03;1.93;;;;;;;13.15;95.02;98458.03;5071716;28;20196;-67
2023/04/26 02:56:59;;;;;;;2.20;2.10;;;;;;;13.06;94.76;98459.44;5072137;28;20257;-68
2023/04/26 02:59:26;;;;;;;2.10;1.90;;;;;;;13.13;94.45;98464.66;5071604;28;20223;-67
2023/04/26 03:01:53;;;;;;;2.20;2.10;;;;;;;13.16;94.63;98459.66;5053306;28;20203;-67
2023/04/26 03:04:20;;;;;;;2.37;2.27;;;;;;;13.27;96.06;98458.00;5064387;28;20261;-67
2023/04/26 03:06:48;;;;;;;2.37;2.27;;;;;;;13.32;96.52;98452.75;5071452;28;20231;-67
2023/04/26 03:09:14;;;;;;;2.00;1.90;;;;;;;13.31;96.65;98443.94;5071501;28;20200;-67
2023/04/26 03:11:41;;;;;;;2.77;2.60;;;;;;;13.39;96.73;98438.22;5070451;28;20199;-67
2023/04/26 03:14:08;;;;;;;2.37;2.27;;;;;;;13.48;96.44;98436.78;5071829;28;20249;-68
2023/04/26 03:16:41;;;;;;;2.30;2.20;;;;;;;13.54;95.95;98430.50;5071907;28;20249;-66
2023/04/26 03:19:08;;;;;;;2.50;2.40;;;;;;;13.50;95.50;98440.03;5071483;28;20215;-67
2023/04/26 03:21:35;;;;;;;2.50;2.40;;;;;;;13.50;95.24;98437.34;5058147;28;20211;-67
2023/04/26 03:24:03;;;;;;;2.93;2.73;;;;;;;13.56;95.10;98439.06;5051834;28;20193;-67
2023/04/26 03:26:30;;;;;;;3.30;3.10;;;;;;;13.54;94.80;98435.84;5051767;28;20258;-67
2023/04/26 03:28:57;;;;;;;3.10;3.00;;;;;;;13.48;95.03;98444.78;5051441;28;20771;-69
2023/04/26 03:31:24;;;;;;;3.10;3.00;;;;;;;13.38;96.00;98439.28;5062500;28;20192;-68
2023/04/26 03:33:51;;;;;;;5.50;3.77;;;;;;;13.40;95.55;98447.81;5071694;28;20196;-67
2023/04/26 03:36:18;;;;;;;3.30;3.10;;;;;;;13.38;96.05;98447.28;5071272;28;20678;-68
2023/04/26 03:38:45;;;;;;;5.40;2.80;;;;;;;13.24;95.52;98447.81;5071659;28;20223;-67
2023/04/26 03:41:13;;;;;;;3.13;3.03;;;;;;;13.20;95.67;98460.00;5061942;28;20711;-67
2023/04/26 03:43:39;;;;;;;2.87;2.73;;;;;;;13.09;95.66;98467.00;5052367;28;20244;-67
2023/04/26 03:46:06;;;;;;;2.30;2.20;;;;;;;13.08;96.15;98473.38;5051084;28;20258;-68
2023/04/26 03:48:33;;;;;;;2.70;2.60;;;;;;;12.98;95.88;98467.81;5051614;28;20644;-67
2023/04/26 03:50:59;;;;;;;2.60;2.40;;;;;;;12.99;96.10;98474.75;5051596;28;20557;-68
2023/04/26 03:53:26;;;;;;;2.17;2.07;;;;;;;12.93;96.40;98475.69;5064872;28;20196;-67
2023/04/26 03:55:53;;;;;;;2.33;2.17;;;;;;;12.83;96.09;98483.47;5071282;28;20231;-67
2023/04/26 03:58:21;;;;;;;2.23;2.00;;;;;;;12.78;96.27;98478.03;5071106;28;20633;-67
2023/04/26 04:00:47;;;;;;;2.13;2.03;;;;;;;12.77;96.95;98486.25;5065093;28;20189;-67
2023/04/26 04:03:14;;;;;;;2.63;2.43;;;;;;;12.80;96.89;98486.63;5054589;28;20192;-67
2023/04/26 04:05:41;;;;;;;3.27;2.93;;;;;;;12.73;97.29;98482.44;5071388;28;20195;-66
2023/04/26 04:08:08;;;;;;;4.20;3.27;;;;;;;12.69;97.06;98481.28;5071479;28;20192;-66
2023/04/26 04:10:35;;;;;;;2.67;2.57;;;;;;;12.75;97.04;98481.19;5069774;28;20231;-67
2023/04/26 04:13:02;;;;;;;3.13;2.80;;;;;;;12.97;98.11;98479.53;5071385;28;20279;-66
2023/04/26 04:15:30;;;;;;;2.50;2.30;;;;;;;13.36;94.89;98473.34;5070941;28;20196;-67
2023/04/26 04:17:57;;;;;;;2.23;2.13;;;;;;;13.49;92.95;98483.75;5072059;28;20188;-69
2023/04/26 04:20:23;;;;;;;3.73;2.00;;;;;;;13.44;92.77;98480.97;5074342;28;20702;-67
2023/04/26 04:22:50;;;;;;;2.47;2.27;;;;;;;13.42;93.01;98480.44;5073609;28;20277;-66
2023/04/26 04:25:19;;;;;;;2.50;2.40;;;;;;;13.47;93.29;98477.84;5073982;28;20192;-75
2023/04/26 04:27:46;;;;;;;3.70;2.57;;;;;;;13.68;93.45;98479.81;5074733;28;20188;-67
2023/04/26 04:30:13;;;;;;;6.57;3.17;;;;;;;13.90;93.13;98478.09;5074756;28;20196;-67
2023/04/26 04:32:44;;;;;;;2.53;2.33;;;;;;;14.03;91.56;98483.09;5072694;28;20196;-67
2023/04/26 04:35:10;;;;;;;8.37;2.70;;;;;;;14.13;90.53;98488.59;5074677;28;20180;-67
2023/04/26 04:37:37;;;;;;;5.03;2.63;;;;;;;14.20;90.34;98478.56;5074147;28;20620;-68
2023/04/26 04:40:05;;;;;;;6.17;2.40;;;;;;;14.55;89.75;98491.69;5074053;28;20289;-68
2023/04/26 04:42:32;;;;;;;5.17;2.43;;;;;;;14.96;87.32;98489.28;5062303;28;20742;-68
2023/04/26 04:44:59;;;;;;;2.87;2.70;;;;;;;15.42;86.84;98494.19;5054379;28;20197;-69
2023/04/26 04:47:25;;;;;;;4.30;3.60;;;;;;;16.25;83.20;98492.81;5053906;28;20642;-68
2023/04/26 04:49:53;;;;;;;1.60;1.50;;;;;;;17.30;85.61;98499.59;5072073;28;20253;-72
2023/04/26 04:52:20;;;;;;;99.63;76.60;;;;;;;17.67;77.75;98502.97;5073823;28;20617;-72
2023/04/26 04:54:47;;;;;;;5.20;4.73;;;;;;;18.18;80.69;98503.84;5073941;28;20198;-72
2023/04/26 04:57:15;;;;;;;6.73;5.97;;;;;;;18.96;77.16;98511.31;5074057;28;20631;-71
2023/04/26 04:59:42;;;;;;;4.17;3.87;;;;;;;20.03;73.07;98512.16;5057181;28;20224;-72
2023/04/26 05:02:08;;;;;;;4.90;3.57;;;;;;;20.86;69.21;98526.28;5053708;28;20617;-71
2023/04/26 05:04:35;;;;;;;3.13;2.80;;;;;;;21.96;61.34;98530.38;5068704;28;20249;-70
2023/04/26 05:07:04;;;;;;;2.87;2.60;;;;;;;23.03;58.67;98534.56;5072106;28;20192;-69
2023/04/26 05:09:31;;;;;;;3.90;2.43;;;;;;;24.04;54.03;98533.31;5073734;28;20196;-70
2023/04/26 05:11:57;;;;;;;3.23;2.13;;;;;;;24.60;50.25;98531.72;5073574;28;20196;-70
2023/04/26 05:14:24;;;;;;;7.10;2.10;;;;;;;25.12;50.56;98529.28;5073972;28;20209;-70
2023/04/26 05:16:51;;;;;;;3.60;1.93;;;;;;;25.14;46.89;98527.06;5067197;28;20245;-68
2023/04/26 05:19:18;;;;;;;9.23;2.90;;;;;;;24.67;46.86;98526.63;5053669;28;20284;-69
2023/04/26 05:21:44;;;;;;;3.43;2.20;;;;;;;24.28;49.75;98503.97;5053334;28;20666;-67
2023/04/26 05:24:12;;;;;;;4.00;2.40;;;;;;;23.52;50.43;98499.44;5053702;28;20203;-67
2023/04/26 05:26:39;;;;;;;2.80;2.43;;;;;;;23.57;52.34;98504.75;5056972;28;20197;-66
2023/04/26 05:29:06;;;;;;;2.13;1.80;;;;;;;23.58;53.52;98506.38;5072659;28;20646;-72
2023/04/26 05:31:33;;;;;;;4.63;3.03;;;;;;;23.60;50.89;98506.88;5073322;28;20194;-71
2023/04/26 05:33:59;;;;;;;3.53;1.90;;;;;;;23.75;54.10;98500.31;5073619;28;20262;-71
2023/04/26 05:36:27;;;;;;;2.47;2.27;;;;;;;24.38;52.95;98501.81;5072296;28;20275;-69
2023/04/26 05:38:53;;;;;;;2.57;2.37;;;;;;;24.78;50.90;98505.44;5073012;28;20230;-70
2023/04/26 05:41:21;;;;;;;5.40;2.60;;;;;;;24.28;50.65;98502.09;5072769;28;20198;-74
2023/04/26 05:43:48;;;;;;;1.90;1.80;;;;;;;23.71;50.26;98512.88;5073328;28;20251;-72
2023/04/26 05:46:15;;;;;;;2.13;2.03;;;;;;;23.23;49.67;98507.13;5060504;28;20202;-72
2023/04/26 05:48:41;;;;;;;3.00;2.30;;;;;;;22.58;50.89;98505.59;5054630;28;20278;-70
2023/04/26 05:51:08;;;;;;;5.20;2.67;;;;;;;22.84;50.92;98501.34;5060237;28;20253;-67
2023/04/26 05:53:35;;;;;;;5.97;2.60;;;;;;;22.91;50.54;98504.44;5061091;28;20602;-68
2023/04/26 05:56:02;;;;;;;7.23;2.23;;;;;;;22.95;52.68;98505.47;5059009;28;20202;-70
2023/04/26 05:58:30;;;;;;;3.30;2.43;;;;;;;22.75;49.59;98510.47;5055934;28;20197;-75
2023/04/26 06:00:57;;;;;;;3.20;3.00;;;;;;;22.45;49.97;98522.56;5055468;28;20591;-75
2023/04/26 06:03:24;;;;;;;7.43;4.47;;;;;;;22.17;52.14;98507.34;5066368;28;20193;-72
2023/04/26 06:05:50;;;;;;;4.97;2.70;;;;;;;22.16;50.69;98508.44;5051458;28;20203;-70
2023/04/26 06:08:17;;;;;;;4.07;2.60;;;;;;;22.25;50.50;98512.09;5050803;28;20193;-72
2023/04/26 06:10:45;;;;;;;3.13;2.23;;;;;;;22.29;54.19;98504.97;5058039;28;20261;-68
2023/04/26 06:13:12;;;;;;;5.93;2.50;;;;;;;23.03;52.14;98502.06;5065301;28;20199;-70
2023/04/26 06:15:40;;;;;;;6.83;3.00;;;;;;;24.06;48.80;98512.13;5060927;28;20193;-68
2023/04/26 06:18:07;;;;;;;2.37;2.27;;;;;;;24.24;44.74;98506.53;5056397;28;20251;-66
2023/04/26 06:20:34;;;;;;;9.33;2.77;;;;;;;24.42;46.02;98513.66;5052930;28;20238;-70
2023/04/26 06:23:01;;;;;;;6.60;2.70;;;;;;;24.45;45.82;98510.34;5064677;28;20274;-67
2023/04/26 06:25:28;;;;;;;29.10;3.73;;;;;;;24.24;44.86;98520.09;5052905;28;20191;-66
2023/04/26 06:27:55;;;;;;;5.23;2.53;;;;;;;23.94;46.23;98512.63;5064597;28;20626;-65
2023/04/26 06:30:21;;;;;;;3.10;2.83;;;;;;;23.97;47.15;98512.03;5054739;28;20247;-68
2023/04/26 06:32:49;;;;;;;4.47;2.30;;;;;;;24.31;45.26;98515.03;5050617;28;20194;-65
2023/04/26 06:35:16;;;;;;;5.27;2.60;;;;;;;24.25;44.78;98513.53;5070723;28;20556;-63
2023/04/26 06:37:43;;;;;;;3.13;2.83;;;;;;;23.60;44.41;98512.28;5069409;28;20194;-64
2023/04/26 06:40:12;;;;;;;3.83;2.13;;;;;;;23.58;46.66;98511.81;5070500;28;20697;-65
2023/04/26 06:42:39;;;;;;;5.87;2.63;;;;;;;23.52;44.49;98518.44;5060603;28;20195;-65
2023/04/26 06:45:07;;;;;;;7.10;2.97;;;;;;;23.26;44.98;98501.09;5065027;28;20640;-65
2023/04/26 06:47:34;;;;;;;7.53;2.47;;;;;;;23.08;45.46;98515.50;5067763;28;20192;-65
2023/04/26 06:50:03;;;;;;;2.07;1.97;;;;;;;23.11;47.54;98508.69;5069775;28;20191;-64
2023/04/26 06:52:30;;;;;;;93.40;10.00;;;;;;;23.39;47.01;98510.31;5070810;28;20676;-64
2023/04/26 06:54:57;;;;;;;4.43;3.00;;;;;;;23.19;45.99;98508.78;5071041;28;20641;-66
2023/04/26 06:57:24;;;;;;;84.23;8.00;;;;;;;23.48;47.04;98512.00;5069421;28;20325;-66
2023/04/26 06:59:51;;;;;;;4.13;2.70;;;;;;;23.59;46.38;98512.59;5059283;28;20278;-66
2023/04/26 07:02:18;;;;;;;9.93;2.97;;;;;;;23.55;46.85;98512.41;5050512;28;20185;-66
2023/04/26 07:04:45;;;;;;;19.70;3.27;;;;;;;23.68;47.10;98508.88;5065981;28;20197;-67
2023/04/26 07:07:15;;;;;;;6.00;2.20;;;;;;;23.95;47.47;98511.56;5069818;28;20201;-66
2023/04/26 07:09:42;;;;;;;50.10;6.33;;;;;;;23.76;45.68;98520.91;5068646;28;20263;-65
2023/04/26 07:12:11;;;;;;;45.13;12.37;;;;;;;23.61;47.33;98519.31;5067462;28;20895;-64
2023/04/26 07:14:40;;;;;;;71.23;16.90;;;;;;;23.59;49.82;98509.88;5070913;28;20284;-65
2023/04/26 07:17:07;;;;;;;15.17;5.70;;;;;;;23.74;45.96;98509.56;5057262;28;20264;-66
2023/04/26 07:19:33;;;;;;;13.30;6.23;;;;;;;23.62;50.48;98515.53;5053891;28;20280;-67
2023/04/26 07:22:00;;;;;;;9.83;4.07;;;;;;;23.58;46.15;98524.56;5050708;28;20248;-65
2023/04/26 07:24:28;;;;;;;3.83;3.23;;;;;;;23.95;45.12;98527.84;5050691;28;20226;-65
2023/04/26 07:26:55;;;;;;;5.33;4.83;;;;;;;24.12;46.95;98525.25;5060796;28;20200;-65
2023/04/26 07:29:22;;;;;;;19.73;5.20;;;;;;;24.22;46.59;98525.00;5070261;28;20696;-66
2023/04/26 07:31:48;;;;;;;95.13;9.87;;;;;;;23.96;43.91;98521.28;5070187;28;20205;-65
2023/04/26 07:34:15;;;;;;;35.33;4.63;;;;;;;23.84;43.85;98526.41;5059902;28;20658;-66
2023/04/26 07:36:42;;;;;;;13.87;4.23;;;;;;;24.02;46.34;98522.75;5059850;28;20204;-65
2023/04/26 07:39:10;;;;;;;17.90;4.63;;;;;;;23.84;43.72;98529.13;5057990;28;20191;-65
2023/04/26 07:41:38;;;;;;;12.13;3.23;;;;;;;23.92;42.85;98533.88;5060193;28;20245;-65
2023/04/26 07:44:05;;;;;;;9.97;3.80;;;;;;;23.66;44.25;98516.53;5057366;28;20247;-65
2023/04/26 07:46:33;;;;;;;6.37;3.30;;;;;;;23.67;44.21;98528.97;5062556;28;20189;-65
2023/04/26 07:48:59;;;;;;;3.77;2.87;;;;;;;23.67;43.57;98539.81;5060200;28;20604;-66
2023/04/26 07:51:27;;;;;;;47.60;5.03;;;;;;;23.18;44.07;98541.59;5066268;28;20677;-65
2023/04/26 07:53:54;;;;;;;4.70;3.37;;;;;;;22.13;46.99;98529.88;5073826;28;20230;-65
2023/04/26 07:56:22;;;;;;;4.60;2.90;;;;;;;21.70;48.38;98522.88;5073334;28;20286;-66
2023/04/26 07:58:50;;;;;;;22.27;5.80;;;;;;;21.60;50.60;98523.03;5072411;28;20188;-65
2023/04/26 08:01:17;;;;;;;17.03;4.40;;;;;;;21.69;50.77;98522.09;5072350;28;20262;-67
2023/04/26 08:03:44;;;;;;;77.20;10.13;;;;;;;22.10;51.35;98522.34;5072632;28;20184;-66
2023/04/26 08:06:11;;;;;;;3.77;2.90;;;;;;;22.35;48.45;98522.75;5073680;28;20219;-65
2023/04/26 08:08:43;;;;;;;8.53;3.20;;;;;;;22.39;47.04;98525.66;5072212;28;20253;-65
2023/04/26 08:11:10;;;;;;;14.23;4.37;;;;;;;22.70;47.96;98515.97;5065440;28;20737;-65
2023/04/26 08:13:37;;;;;;;38.07;5.37;;;;;;;23.11;45.79;98525.75;5070878;28;20203;-66
2023/04/26 08:16:05;;;;;;;7.37;3.83;;;;;;;23.67;44.06;98518.13;5065928;28;20672;-65
2023/04/26 08:18:32;;;;;;;4.03;2.97;;;;;;;24.37;44.68;98508.38;5067284;28;20615;-67
2023/04/26 08:20:59;;;;;;;3.07;2.97;;;;;;;24.07;41.98;98524.56;5073426;28;20217;-65
2023/04/26 08:23:25;;;;;;;12.03;3.60;;;;;;;24.06;44.05;98514.84;5073345;28;20269;-66
2023/04/26 08:25:52;;;;;;;36.97;6.07;;;;;;;24.12;41.27;98508.16;5070621;28;20186;-64
2023/04/26 08:28:19;;;;;;;12.43;3.83;;;;;;;23.80;40.56;98524.59;5069539;28;20228;-66
2023/04/26 08:30:45;;;;;;;6.43;3.17;;;;;;;23.52;41.15;98521.13;5071801;28;20649;-66
2023/04/26 08:33:13;;;;;;;13.53;3.63;;;;;;;23.44;43.63;98508.28;5065899;28;20254;-63
2023/04/26 08:35:40;;;;;;;23.43;4.73;;;;;;;23.63;41.34;98506.28;5073235;28;20194;-64
2023/04/26 08:38:07;;;;;;;9.77;3.83;;;;;;;23.57;43.05;98512.91;5073189;28;20192;-63
2023/04/26 08:40:34;;;;;;;3.20;3.00;;;;;;;23.52;41.57;98509.50;5073618;28;20573;-63
2023/04/26 08:43:01;;;;;;;8.87;3.47;;;;;;;23.66;41.41;98504.84;5068109;28;20194;-65
2023/04/26 08:45:27;;;;;;;30.83;4.90;;;;;;;23.78;42.61;98503.25;5068852;28;20246;-64
2023/04/26 08:47:59;;;;;;;46.83;5.80;;;;;;;23.79;41.39;98502.13;5073232;28;20193;-63
2023/04/26 08:50:29;;;;;;;60.37;7.53;;;;;;;23.64;41.41;98507.88;5073666;28;20262;-64
2023/04/26 08:52:56;;;;;;;4.67;3.03;;;;;;;23.18;40.60;98504.47;5070575;28;20943;-65
2023/04/26 08:55:24;;;;;;;11.20;3.67;;;;;;;22.98;47.01;98491.31;5072332;28;20192;-64
2023/04/26 08:57:51;;;;;;;14.90;4.17;;;;;;;23.27;43.71;98497.28;5072482;28;20225;-63
2023/04/26 09:00:18;;;;;;;19.30;4.57;;;;;;;23.61;44.09;98486.78;5072827;28;20696;-64
2023/04/26 09:02:47;;;;;;;63.67;7.17;;;;;;;24.11;40.94;98498.44;5072547;28;20241;-66
2023/04/26 09:05:14;;;;;;;7.87;3.00;;;;;;;23.85;37.80;98497.38;5065916;28;20232;-66
2023/04/26 09:07:44;;;;;;;14.43;3.50;;;;;;;23.83;37.57;98489.56;5072108;28;20735;-65
2023/04/26 09:10:12;;;;;;;35.33;4.83;;;;;;;23.98;40.63;98489.22;5066472;28;20213;-66
2023/04/26 09:12:39;;;;;;;4.80;2.70;;;;;;;23.59;38.04;98483.59;5069954;28;20208;-64
2023/04/26 09:15:07;;;;;;;3.17;2.90;;;;;;;23.85;39.21;98490.03;5072355;28;20205;-64
2023/04/26 09:17:36;;;;;;;4.17;3.07;;;;;;;23.28;37.33;98490.75;5065512;28;20194;-65
2023/04/26 09:20:17;;;;;;;5.00;2.87;;;;;;;;;;5065979;28;20231;-67
2023/04/26 09:22:45;;;;;;;2.93;2.67;;;;;;;23.72;39.21;98481.94;5066265;28;20563;-65
2023/04/26 09:25:13;;;;;;;5.27;3.33;;;;;;;23.88;42.06;98478.59;5060452;28;20189;-68
2023/04/26 09:27:42;;;;;;;4.87;2.67;;;;;;;23.87;38.32;98490.56;5067119;28;20194;-65
2023/04/26 09:30:11;;;;;;;4.60;3.37;;;;;;;23.86;38.88;98478.09;5072358;28;20195;-64
2023/04/26 09:32:49;;;;;;;4.50;2.67;;;;;;;24.18;40.32;98464.31;5071409;28;20669;-67
2023/04/26 09:35:25;;;;;;;30.50;5.33;;;;;;;24.31;39.59;98474.31;5064334;28;20223;-64
2023/04/26 09:37:55;;;;;;;3.43;2.60;;;;;;;23.83;39.88;98484.13;5052300;28;20258;-68
2023/04/26 09:40:22;;;;;;;3.47;2.70;;;;;;;23.79;42.45;98477.72;5051891;28;20222;-67
2023/04/26 09:43:00;;;;;;;3.50;3.00;;;;;;;23.82;41.44;98477.09;5051466;28;20202;-67
2023/04/26 09:45:29;;;;;;;6.70;3.47;;;;;;;23.70;41.74;98468.69;5049715;28;20657;-69
2023/04/26 09:47:59;;;;;;;2.93;2.70;;;;;;;24.04;40.51;98474.44;5049768;28;20195;-68
2023/04/26 09:50:31;;;;;;;3.80;3.40;;;;;;;23.79;39.68;98472.28;5050052;28;20209;-67
2023/04/26 09:52:59;;;;;;;3.73;3.30;;;;;;;23.67;42.17;98463.06;5065747;28;20716;-66
2023/04/26 09:55:28;;;;;;;11.53;3.40;;;;;;;24.12;42.36;98464.75;5071515;28;20262;-68
2023/04/26 09:57:55;;;;;;;14.53;3.77;;;;;;;24.51;39.69;98457.50;5069237;28;20208;-65
2023/04/26 10:00:24;;;;;;;4.70;3.23;;;;;;;24.62;39.75;98458.88;5071567;28;20222;-65
2023/04/26 10:02:53;;;;;;;5.00;3.17;;;;;;;24.63;40.30;98457.75;5071950;28;20209;-66
2023/04/26 10:05:20;;;;;;;3.83;2.93;;;;;;;24.61;39.20;98446.41;5071985;28;20191;-67
2023/04/26 10:07:48;;;;;;;6.03;3.23;;;;;;;24.86;39.29;98450.34;5072165;28;20203;-67
2023/04/26 10:10:16;;;;;;;3.13;2.83;;;;;;;24.75;38.06;98441.69;5072038;28;20199;-68
2023/04/26 10:12:43;;;;;;;7.30;2.70;;;;;;;24.25;39.35;98428.59;5054806;28;20199;-67
2023/04/26 10:15:11;;;;;;;4.20;2.93;;;;;;;24.52;37.50;98448.25;5052266;28;20199;-67
2023/04/26 10:17:38;;;;;;;5.97;3.47;;;;;;;24.27;38.35;98440.78;5053852;28;20194;-67
2023/04/26 10:20:11;;;;;;;8.63;3.50;;;;;;;24.37;39.54;98440.50;5070781;28;20192;-69
2023/04/26 10:22:45;;;;;;;3.30;2.83;;;;;;;24.27;37.26;98443.47;5071199;28;20190;-67
2023/04/26 10:25:12;;;;;;;3.17;2.77;;;;;;;23.48;37.76;98443.44;5062541;28;20718;-68
2023/04/26 10:27:51;;;;;;;9.77;3.33;;;;;;;23.03;41.27;98437.03;5059561;28;20682;-66
2023/04/26 10:30:21;;;;;;;44.07;5.27;;;;;;;22.90;40.85;98437.84;5060324;28;20268;-66
2023/04/26 10:33:13;;;;;;;7.07;3.63;;;;;;;22.27;40.39;98434.13;5060512;28;20204;-65
2023/04/26 10:36:00;;;;;;;4.50;3.20;;;;;;;21.99;41.55;98445.97;5042311;28;20193;-65
2023/04/26 10:38:26;;;;;;;77.60;9.63;;;;;;;21.66;42.81;98428.06;5059942;28;20642;-67
2023/04/26 10:40:53;;;;;;;9.87;4.87;;;;;;;21.01;44.05;98434.38;5060284;28;20208;-69
2023/04/26 10:43:29;;;;;;;9.53;4.50;;;;;;;20.42;47.60;98428.53;5062201;28;20625;-63
2023/04/26 10:45:56;;;;;;;5.13;4.50;;;;;;;20.21;49.30;98421.69;5059081;28;20184;-63
2023/04/26 10:48:29;;;;;;;4.93;3.60;;;;;;;19.91;48.41;98428.13;5051308;28;20708;-62
2023/04/26 10:51:11;;;;;;;34.27;7.80;;;;;;;19.86;48.94;98430.84;5051207;28;20202;-64
2023/04/26 10:53:59;;;;;;;7.50;6.83;;;;;;;19.46;51.23;98420.38;5053990;28;20212;-63
2023/04/26 10:56:50;;;;;;;164.97;17.13;;;;;;;19.38;52.70;98420.16;5051266;28;20185;-62
2023/04/26 10:59:22;;;;;;;11.03;5.40;;;;;;;19.26;51.83;98414.28;5050958;28;20632;-68
2023/04/26 11:01:48;;;;;;;5.53;5.00;;;;;;;19.26;51.07;98422.38;5051589;28;20222;-67
2023/04/26 11:04:16;;;;;;;6.83;5.17;;;;;;;18.84;50.72;98432.75;5060208;28;20190;-63
2023/04/26 11:06:49;;;;;;;4.93;4.63;;;;;;;18.80;51.58;98423.63;5067364;28;20714;-65
2023/04/26 11:09:38;;;;;;;4.53;4.07;;;;;;;18.70;52.50;98431.75;5069660;28;20261;-64
2023/04/26 11:12:05;;;;;;;30.63;7.27;;;;;;;18.80;53.34;98420.94;5058961;28;20204;-64
2023/04/26 11:14:34;;;;;;;13.20;5.60;;;;;;;18.65;53.86;98418.28;5061967;28;20188;-64
2023/04/26 11:17:04;;;;;;;12.47;5.33;;;;;;;18.91;53.91;98417.91;5071430;28;20229;-65
2023/04/26 11:19:31;;;;;;;4.37;4.07;;;;;;;18.90;54.60;98421.69;5051320;28;20276;-64
2023/04/26 11:21:59;;;;;;;4.97;4.40;;;;;;;18.76;53.84;98419.88;5050767;28;20350;-66
2023/04/26 11:24:25;;;;;;;9.03;4.63;;;;;;;18.81;53.87;98427.91;5051355;28;20200;-65
2023/04/26 11:26:52;;;;;;;8.73;5.40;;;;;;;18.74;53.46;98432.81;5055266;28;20274;-66
2023/04/26 11:29:19;;;;;;;22.73;5.97;;;;;;;18.58;53.37;98425.88;5070713;28;20219;-68
2023/04/26 11:31:53;;;;;;;5.80;4.40;;;;;;;18.58;54.01;98431.25;5073617;28;20195;-67
2023/04/26 11:34:23;;;;;;;12.93;5.10;;;;;;;18.96;56.50;98434.06;5069016;28;20232;-66